Barking Sands Airport Kekaha US
ICAO: PHBK
IATA:
Category: Medium
Scheduled Services:

Elevation: 23 ft
TransAlt. 18000 ft.

Airport Communications:
HONOLULU CNTR:126.5
RANGE OUTRIDER:32.285
TWR:126.2
UNICOM:122.8

PHBK Zoom In..

Runways:

(A) RW 16 length 6002 ft width 146 ft
---- / hdg 160

(B) RW 34 length 6002 ft width 146 ft
---- / hdg 340

Location; PHBK
Day. 19 / Time. 20.56 Zulu
* Altimeter: 30.05
* Temperature: 25° c. 77°f.
* Wind from: 270° Speed 07 kn.
Dewpoint: 21° c.
Visibility: 5000 m.
Clouds: Clear (automated report).

PHBK 192056Z AUTO 27007KT CLR 25/21 A3005 RMK AO2 SLP179 T02500211 50005 $


Wind From 270°
Speed 07 kn.

  YouTube Music Video
 
jpsmedia.com for Web Design  worldairports.se 2018   terms of use